sensor_id;sensor_type;location;lat;lon;timestamp;temperature;humidity
64638;HTU21D;51049;45.046;38.950;2023-02-24T00:01:00;-5.30;70.62
64638;HTU21D;51049;45.046;38.950;2023-02-24T00:03:38;-5.31;70.64
64638;HTU21D;51049;45.046;38.950;2023-02-24T00:06:10;-5.33;70.70
64638;HTU21D;51049;45.046;38.950;2023-02-24T00:08:40;-5.33;70.70
64638;HTU21D;51049;45.046;38.950;2023-02-24T00:11:22;-5.34;70.68
64638;HTU21D;51049;45.046;38.950;2023-02-24T00:14:03;-5.38;70.71
64638;HTU21D;51049;45.046;38.950;2023-02-24T00:16:38;-5.38;70.72
64638;HTU21D;51049;45.046;38.950;2023-02-24T00:19:20;-5.39;70.77
64638;HTU21D;51049;45.046;38.950;2023-02-24T00:22:34;-5.38;70.78
64638;HTU21D;51049;45.046;38.950;2023-02-24T00:25:09;-5.40;70.72
64638;HTU21D;51049;45.046;38.950;2023-02-24T00:27:52;-5.41;70.71
64638;HTU21D;51049;45.046;38.950;2023-02-24T00:30:38;-5.44;70.73
64638;HTU21D;51049;45.046;38.950;2023-02-24T00:33:11;-5.47;70.74
64638;HTU21D;51049;45.046;38.950;2023-02-24T00:36:02;-5.47;70.78
64638;HTU21D;51049;45.046;38.950;2023-02-24T00:38:33;-5.50;70.76
64638;HTU21D;51049;45.046;38.950;2023-02-24T00:41:17;-5.53;70.76
64638;HTU21D;51049;45.046;38.950;2023-02-24T00:43:59;-5.54;70.79
64638;HTU21D;51049;45.046;38.950;2023-02-24T00:50:00;-5.53;70.74
64638;HTU21D;51049;45.046;38.950;2023-02-24T00:52:30;-5.50;70.76
64638;HTU21D;51049;45.046;38.950;2023-02-24T00:55:02;-5.50;70.74
64638;HTU21D;51049;45.046;38.950;2023-02-24T00:57:47;-5.49;70.75
64638;HTU21D;51049;45.046;38.950;2023-02-24T01:00:19;-5.47;70.74
64638;HTU21D;51049;45.046;38.950;2023-02-24T01:02:58;-5.45;70.72
64638;HTU21D;51049;45.046;38.950;2023-02-24T01:09:03;-5.42;70.67
64638;HTU21D;51049;45.046;38.950;2023-02-24T01:11:34;-5.41;70.68
64638;HTU21D;51049;45.046;38.950;2023-02-24T01:14:27;-5.41;70.71
64638;HTU21D;51049;45.046;38.950;2023-02-24T01:17:03;-5.38;70.71
64638;HTU21D;51049;45.046;38.950;2023-02-24T01:19:35;-5.35;70.72
64638;HTU21D;51049;45.046;38.950;2023-02-24T01:22:13;-5.33;70.72
64638;HTU21D;51049;45.046;38.950;2023-02-24T01:27:36;-5.29;70.67
64638;HTU21D;51049;45.046;38.950;2023-02-24T01:30:12;-5.29;70.68
64638;HTU21D;51049;45.046;38.950;2023-02-24T01:32:53;-5.28;70.70
64638;HTU21D;51049;45.046;38.950;2023-02-24T01:35:30;-5.28;70.70
64638;HTU21D;51049;45.046;38.950;2023-02-24T01:38:10;-5.24;70.73
64638;HTU21D;51049;45.046;38.950;2023-02-24T01:46:45;-5.14;70.68
64638;HTU21D;51049;45.046;38.950;2023-02-24T01:53:17;-5.10;70.66
64638;HTU21D;51049;45.046;38.950;2023-02-24T01:55:57;-5.09;70.61
64638;HTU21D;51049;45.046;38.950;2023-02-24T01:58:41;-5.11;70.61
64638;HTU21D;51049;45.046;38.950;2023-02-24T02:01:09;-5.12;70.62
64638;HTU21D;51049;45.046;38.950;2023-02-24T02:03:44;-5.14;70.64
64638;HTU21D;51049;45.046;38.950;2023-02-24T02:06:26;-5.17;70.67
64638;HTU21D;51049;45.046;38.950;2023-02-24T02:09:14;-5.18;70.71
64638;HTU21D;51049;45.046;38.950;2023-02-24T02:11:58;-5.18;70.77
64638;HTU21D;51049;45.046;38.950;2023-02-24T02:14:34;-5.19;70.75
64638;HTU21D;51049;45.046;38.950;2023-02-24T02:17:28;-5.20;70.76
64638;HTU21D;51049;45.046;38.950;2023-02-24T02:46:32;-5.14;70.75
64638;HTU21D;51049;45.046;38.950;2023-02-24T02:49:16;-5.07;70.66
64638;HTU21D;51049;45.046;38.950;2023-02-24T02:58:20;-4.99;70.56
64638;HTU21D;51049;45.046;38.950;2023-02-24T03:01:06;-4.97;70.56
64638;HTU21D;51049;45.046;38.950;2023-02-24T03:04:05;-4.95;70.57
64638;HTU21D;51049;45.046;38.950;2023-02-24T03:06:41;-4.94;70.63
64638;HTU21D;51049;45.046;38.950;2023-02-24T03:09:34;-4.90;70.66
64638;HTU21D;51049;45.046;38.950;2023-02-24T03:12:07;-4.87;70.67
64638;HTU21D;51049;45.046;38.950;2023-02-24T03:14:47;-4.85;70.66
64638;HTU21D;51049;45.046;38.950;2023-02-24T03:17:32;-4.84;70.69
64638;HTU21D;51049;45.046;38.950;2023-02-24T03:20:21;-4.83;70.72
64638;HTU21D;51049;45.046;38.950;2023-02-24T03:23:17;-4.83;70.74
64638;HTU21D;51049;45.046;38.950;2023-02-24T03:25:53;-4.83;70.74
64638;HTU21D;51049;45.046;38.950;2023-02-24T03:28:44;-4.82;70.73
64638;HTU21D;51049;45.046;38.950;2023-02-24T03:34:26;-4.78;70.77
64638;HTU21D;51049;45.046;38.950;2023-02-24T03:37:01;-4.75;70.76
64638;HTU21D;51049;45.046;38.950;2023-02-24T03:39:32;-4.74;70.74
64638;HTU21D;51049;45.046;38.950;2023-02-24T03:42:16;-4.71;70.78
64638;HTU21D;51049;45.046;38.950;2023-02-24T03:45:11;-4.68;70.82
64638;HTU21D;51049;45.046;38.950;2023-02-24T03:47:41;-4.66;70.78
64638;HTU21D;51049;45.046;38.950;2023-02-24T03:50:30;-4.64;70.80
64638;HTU21D;51049;45.046;38.950;2023-02-24T03:59:40;-4.60;70.80
64638;HTU21D;51049;45.046;38.950;2023-02-24T04:02:23;-4.59;70.76
64638;HTU21D;51049;45.046;38.950;2023-02-24T04:05:12;-4.58;70.77
64638;HTU21D;51049;45.046;38.950;2023-02-24T04:08:20;-4.58;70.77
64638;HTU21D;51049;45.046;38.950;2023-02-24T04:11:01;-4.57;70.79
64638;HTU21D;51049;45.046;38.950;2023-02-24T04:13:43;-4.56;70.79
64638;HTU21D;51049;45.046;38.950;2023-02-24T04:16:44;-4.55;70.84
64638;HTU21D;51049;45.046;38.950;2023-02-24T04:19:26;-4.55;70.82
64638;HTU21D;51049;45.046;38.950;2023-02-24T04:22:11;-4.53;70.82
64638;HTU21D;51049;45.046;38.950;2023-02-24T04:24:49;-4.53;70.84
64638;HTU21D;51049;45.046;38.950;2023-02-24T04:27:17;-4.54;70.85
64638;HTU21D;51049;45.046;38.950;2023-02-24T04:29:51;-4.54;70.89
64638;HTU21D;51049;45.046;38.950;2023-02-24T04:32:21;-4.53;70.90
64638;HTU21D;51049;45.046;38.950;2023-02-24T04:38:47;-4.46;70.93
64638;HTU21D;51049;45.046;38.950;2023-02-24T04:41:17;-4.41;70.93
64638;HTU21D;51049;45.046;38.950;2023-02-24T04:46:58;-4.31;70.90
64638;HTU21D;51049;45.046;38.950;2023-02-24T04:49:46;-4.27;70.90
64638;HTU21D;51049;45.046;38.950;2023-02-24T04:52:42;-4.20;70.90
64638;HTU21D;51049;45.046;38.950;2023-02-24T04:55:16;-4.13;70.90
64638;HTU21D;51049;45.046;38.950;2023-02-24T05:00:36;-3.96;70.92
64638;HTU21D;51049;45.046;38.950;2023-02-24T05:03:10;-3.87;70.90
64638;HTU21D;51049;45.046;38.950;2023-02-24T05:05:51;-3.76;70.86
64638;HTU21D;51049;45.046;38.950;2023-02-24T05:08:23;-3.67;70.82
64638;HTU21D;51049;45.046;38.950;2023-02-24T05:10:56;-3.58;70.81
64638;HTU21D;51049;45.046;38.950;2023-02-24T05:13:31;-3.47;70.78
64638;HTU21D;51049;45.046;38.950;2023-02-24T05:16:09;-3.38;70.75
64638;HTU21D;51049;45.046;38.950;2023-02-24T05:22:29;-3.15;70.73
64638;HTU21D;51049;45.046;38.950;2023-02-24T05:25:17;-3.05;70.68
64638;HTU21D;51049;45.046;38.950;2023-02-24T05:27:56;-2.94;70.68
64638;HTU21D;51049;45.046;38.950;2023-02-24T05:30:52;-2.83;70.64
64638;HTU21D;51049;45.046;38.950;2023-02-24T05:33:20;-2.74;70.64
64638;HTU21D;51049;45.046;38.950;2023-02-24T05:35:48;-2.66;70.63
64638;HTU21D;51049;45.046;38.950;2023-02-24T05:38:16;-2.60;70.62
64638;HTU21D;51049;45.046;38.950;2023-02-24T05:47:48;-2.30;70.58
64638;HTU21D;51049;45.046;38.950;2023-02-24T05:50:35;-2.21;70.57
64638;HTU21D;51049;45.046;38.950;2023-02-24T05:53:07;-2.15;70.58
64638;HTU21D;51049;45.046;38.950;2023-02-24T05:55:43;-2.06;70.58
64638;HTU21D;51049;45.046;38.950;2023-02-24T05:58:13;-1.99;70.55
64638;HTU21D;51049;45.046;38.950;2023-02-24T06:00:53;-1.89;70.58
64638;HTU21D;51049;45.046;38.950;2023-02-24T06:03:28;-1.77;70.56
64638;HTU21D;51049;45.046;38.950;2023-02-24T06:06:05;-1.70;70.53
64638;HTU21D;51049;45.046;38.950;2023-02-24T06:08:36;-1.61;70.52
64638;HTU21D;51049;45.046;38.950;2023-02-24T06:14:11;-1.40;70.42
64638;HTU21D;51049;45.046;38.950;2023-02-24T06:16:42;-1.34;70.39
64638;HTU21D;51049;45.046;38.950;2023-02-24T06:19:19;-1.28;70.39
64638;HTU21D;51049;45.046;38.950;2023-02-24T06:21:53;-1.20;70.39
64638;HTU21D;51049;45.046;38.950;2023-02-24T06:24:23;-1.14;70.39
64638;HTU21D;51049;45.046;38.950;2023-02-24T06:26:52;-1.08;70.36
64638;HTU21D;51049;45.046;38.950;2023-02-24T06:29:23;-1.04;70.26
64638;HTU21D;51049;45.046;38.950;2023-02-24T06:34:46;-0.99;70.27
64638;HTU21D;51049;45.046;38.950;2023-02-24T06:37:19;-0.96;70.25
64638;HTU21D;51049;45.046;38.950;2023-02-24T06:39:49;-0.93;70.28
64638;HTU21D;51049;45.046;38.950;2023-02-24T06:42:20;-0.86;70.30
64638;HTU21D;51049;45.046;38.950;2023-02-24T06:44:55;-0.80;70.27
64638;HTU21D;51049;45.046;38.950;2023-02-24T06:47:56;-0.73;70.26
64638;HTU21D;51049;45.046;38.950;2023-02-24T06:50:32;-0.68;70.20
64638;HTU21D;51049;45.046;38.950;2023-02-24T06:53:04;-0.59;70.23
64638;HTU21D;51049;45.046;38.950;2023-02-24T06:55:45;-0.47;70.23
64638;HTU21D;51049;45.046;38.950;2023-02-24T06:58:18;-0.36;70.19
64638;HTU21D;51049;45.046;38.950;2023-02-24T07:00:45;-0.26;70.12
64638;HTU21D;51049;45.046;38.950;2023-02-24T07:03:27;-0.21;70.06
64638;HTU21D;51049;45.046;38.950;2023-02-24T07:06:12;-0.15;69.89
64638;HTU21D;51049;45.046;38.950;2023-02-24T07:08:51;-0.13;69.87
64638;HTU21D;51049;45.046;38.950;2023-02-24T07:11:20;-0.10;69.91
64638;HTU21D;51049;45.046;38.950;2023-02-24T07:13:47;-0.06;69.98
64638;HTU21D;51049;45.046;38.950;2023-02-24T07:16:24;0.01;69.94
64638;HTU21D;51049;45.046;38.950;2023-02-24T07:19:01;0.08;69.92
64638;HTU21D;51049;45.046;38.950;2023-02-24T07:21:31;0.14;69.68
64638;HTU21D;51049;45.046;38.950;2023-02-24T07:24:13;0.20;69.58
64638;HTU21D;51049;45.046;38.950;2023-02-24T07:26:47;0.28;69.76
64638;HTU21D;51049;45.046;38.950;2023-02-24T07:29:16;0.36;69.78
64638;HTU21D;51049;45.046;38.950;2023-02-24T07:31:46;0.42;69.78
64638;HTU21D;51049;45.046;38.950;2023-02-24T07:34:16;0.44;69.71
64638;HTU21D;51049;45.046;38.950;2023-02-24T07:36:53;0.47;69.80
64638;HTU21D;51049;45.046;38.950;2023-02-24T07:39:22;0.52;69.82
64638;HTU21D;51049;45.046;38.950;2023-02-24T07:41:54;0.62;69.89
64638;HTU21D;51049;45.046;38.950;2023-02-24T07:44:24;0.76;69.84
64638;HTU21D;51049;45.046;38.950;2023-02-24T07:46:50;0.90;69.76
64638;HTU21D;51049;45.046;38.950;2023-02-24T07:49:20;1.02;69.73
64638;HTU21D;51049;45.046;38.950;2023-02-24T07:51:51;1.14;69.63
64638;HTU21D;51049;45.046;38.950;2023-02-24T07:54:21;1.23;69.57
64638;HTU21D;51049;45.046;38.950;2023-02-24T07:56:48;1.34;69.60
64638;HTU21D;51049;45.046;38.950;2023-02-24T07:59:29;1.48;69.58
64638;HTU21D;51049;45.046;38.950;2023-02-24T08:01:59;1.62;69.51
64638;HTU21D;51049;45.046;38.950;2023-02-24T08:04:29;1.68;68.84
64638;HTU21D;51049;45.046;38.950;2023-02-24T08:07:03;1.67;68.71
64638;HTU21D;51049;45.046;38.950;2023-02-24T08:09:31;1.70;69.10
64638;HTU21D;51049;45.046;38.950;2023-02-24T08:12:15;1.81;69.12
64638;HTU21D;51049;45.046;38.950;2023-02-24T08:14:43;1.88;68.94
64638;HTU21D;51049;45.046;38.950;2023-02-24T08:17:23;1.95;69.09
64638;HTU21D;51049;45.046;38.950;2023-02-24T08:19:54;1.99;68.43
64638;HTU21D;51049;45.046;38.950;2023-02-24T08:22:48;1.98;68.86
64638;HTU21D;51049;45.046;38.950;2023-02-24T08:25:19;2.02;68.91
64638;HTU21D;51049;45.046;38.950;2023-02-24T08:27:53;2.07;69.04
64638;HTU21D;51049;45.046;38.950;2023-02-24T08:30:24;2.10;69.07
64638;HTU21D;51049;45.046;38.950;2023-02-24T08:32:51;2.14;69.10
64638;HTU21D;51049;45.046;38.950;2023-02-24T08:35:29;2.22;69.11
64638;HTU21D;51049;45.046;38.950;2023-02-24T08:38:03;2.40;69.20
64638;HTU21D;51049;45.046;38.950;2023-02-24T08:40:45;2.61;69.10
64638;HTU21D;51049;45.046;38.950;2023-02-24T08:43:39;2.84;68.91
64638;HTU21D;51049;45.046;38.950;2023-02-24T08:48:54;3.14;68.69
64638;HTU21D;51049;45.046;38.950;2023-02-24T08:51:24;3.25;68.63
64638;HTU21D;51049;45.046;38.950;2023-02-24T08:53:58;3.34;68.57
64638;HTU21D;51049;45.046;38.950;2023-02-24T08:56:31;3.38;68.42
64638;HTU21D;51049;45.046;38.950;2023-02-24T08:59:01;3.35;68.57
64638;HTU21D;51049;45.046;38.950;2023-02-24T09:01:43;3.36;68.25
64638;HTU21D;51049;45.046;38.950;2023-02-24T09:04:54;3.30;68.17
64638;HTU21D;51049;45.046;38.950;2023-02-24T09:07:53;3.21;68.52
64638;HTU21D;51049;45.046;38.950;2023-02-24T09:10:22;3.18;68.33
64638;HTU21D;51049;45.046;38.950;2023-02-24T09:12:58;3.12;68.59
64638;HTU21D;51049;45.046;38.950;2023-02-24T09:15:50;3.08;68.68
64638;HTU21D;51049;45.046;38.950;2023-02-24T09:18:16;3.09;68.81
64638;HTU21D;51049;45.046;38.950;2023-02-24T09:20:43;3.14;68.65
64638;HTU21D;51049;45.046;38.950;2023-02-24T09:23:21;3.20;68.04
64638;HTU21D;51049;45.046;38.950;2023-02-24T09:25:55;3.19;68.30
64638;HTU21D;51049;45.046;38.950;2023-02-24T09:28:25;3.23;68.34
64638;HTU21D;51049;45.046;38.950;2023-02-24T09:30:57;3.30;68.75
64638;HTU21D;51049;45.046;38.950;2023-02-24T09:33:33;3.45;68.85
64638;HTU21D;51049;45.046;38.950;2023-02-24T09:36:10;3.58;68.49
64638;HTU21D;51049;45.046;38.950;2023-02-24T09:39:00;3.67;68.51
64638;HTU21D;51049;45.046;38.950;2023-02-24T09:41:34;3.76;68.53
64638;HTU21D;51049;45.046;38.950;2023-02-24T09:44:42;3.98;68.51
64638;HTU21D;51049;45.046;38.950;2023-02-24T09:47:22;4.20;68.52
64638;HTU21D;51049;45.046;38.950;2023-02-24T09:52:51;4.66;68.51
64638;HTU21D;51049;45.046;38.950;2023-02-24T09:55:37;4.88;68.55
64638;HTU21D;51049;45.046;38.950;2023-02-24T09:58:25;5.09;68.47
64638;HTU21D;51049;45.046;38.950;2023-02-24T10:07:12;5.69;68.33
64638;HTU21D;51049;45.046;38.950;2023-02-24T10:09:59;5.91;68.40
64638;HTU21D;51049;45.046;38.950;2023-02-24T10:13:17;6.16;68.36
64638;HTU21D;51049;45.046;38.950;2023-02-24T10:16:02;6.41;68.33
64638;HTU21D;51049;45.046;38.950;2023-02-24T10:18:45;6.59;68.11
64638;HTU21D;51049;45.046;38.950;2023-02-24T10:21:49;6.75;68.07
64638;HTU21D;51049;45.046;38.950;2023-02-24T10:30:14;7.24;68.00
64638;HTU21D;51049;45.046;38.950;2023-02-24T10:32:59;7.40;67.99
64638;HTU21D;51049;45.046;38.950;2023-02-24T10:35:30;7.57;67.97
64638;HTU21D;51049;45.046;38.950;2023-02-24T10:38:01;7.73;67.94
64638;HTU21D;51049;45.046;38.950;2023-02-24T10:40:31;7.85;68.04
64638;HTU21D;51049;45.046;38.950;2023-02-24T10:43:17;7.89;67.94
64638;HTU21D;51049;45.046;38.950;2023-02-24T10:45:45;7.86;67.91
64638;HTU21D;51049;45.046;38.950;2023-02-24T10:48:24;7.74;67.78
64638;HTU21D;51049;45.046;38.950;2023-02-24T10:50:53;7.68;68.04
64638;HTU21D;51049;45.046;38.950;2023-02-24T10:53:33;7.65;68.10
64638;HTU21D;51049;45.046;38.950;2023-02-24T10:56:13;7.74;68.40
64638;HTU21D;51049;45.046;38.950;2023-02-24T10:59:12;7.91;68.46
64638;HTU21D;51049;45.046;38.950;2023-02-24T11:05:05;8.39;68.23
64638;HTU21D;51049;45.046;38.950;2023-02-24T11:08:10;8.60;68.01
64638;HTU21D;51049;45.046;38.950;2023-02-24T11:10:41;8.83;68.07
64638;HTU21D;51049;45.046;38.950;2023-02-24T11:13:18;9.06;67.97
64638;HTU21D;51049;45.046;38.950;2023-02-24T11:16:07;9.14;67.78
64638;HTU21D;51049;45.046;38.950;2023-02-24T11:18:53;9.23;67.84
64638;HTU21D;51049;45.046;38.950;2023-02-24T11:21:24;9.36;67.71
64638;HTU21D;51049;45.046;38.950;2023-02-24T11:23:56;9.51;67.90
64638;HTU21D;51049;45.046;38.950;2023-02-24T11:26:31;9.79;67.72
64638;HTU21D;51049;45.046;38.950;2023-02-24T11:29:19;10.07;67.10
64638;HTU21D;51049;45.046;38.950;2023-02-24T11:35:12;10.59;66.36
64638;HTU21D;51049;45.046;38.950;2023-02-24T11:37:46;10.95;66.07
64638;HTU21D;51049;45.046;38.950;2023-02-24T11:40:24;11.26;65.64
64638;HTU21D;51049;45.046;38.950;2023-02-24T11:43:15;11.55;65.23
64638;HTU21D;51049;45.046;38.950;2023-02-24T11:51:04;12.20;64.11
64638;HTU21D;51049;45.046;38.950;2023-02-24T11:53:53;12.44;63.64
64638;HTU21D;51049;45.046;38.950;2023-02-24T12:05:49;13.63;61.77
64638;HTU21D;51049;45.046;38.950;2023-02-24T12:08:27;13.98;61.07
64638;HTU21D;51049;45.046;38.950;2023-02-24T12:11:18;14.27;60.40
64638;HTU21D;51049;45.046;38.950;2023-02-24T12:13:55;14.45;59.60
64638;HTU21D;51049;45.046;38.950;2023-02-24T12:16:31;14.67;59.19
64638;HTU21D;51049;45.046;38.950;2023-02-24T12:19:16;14.88;58.77
64638;HTU21D;51049;45.046;38.950;2023-02-24T12:21:50;15.09;58.00
64638;HTU21D;51049;45.046;38.950;2023-02-24T12:24:18;15.28;57.76
64638;HTU21D;51049;45.046;38.950;2023-02-24T12:39:29;15.69;57.36
64638;HTU21D;51049;45.046;38.950;2023-02-24T12:56:26;16.21;57.16
64638;HTU21D;51049;45.046;38.950;2023-02-24T12:59:00;16.10;57.05
64638;HTU21D;51049;45.046;38.950;2023-02-24T13:01:44;16.21;57.08
64638;HTU21D;51049;45.046;38.950;2023-02-24T13:04:27;16.49;56.52
64638;HTU21D;51049;45.046;38.950;2023-02-24T13:10:16;16.64;55.94
64638;HTU21D;51049;45.046;38.950;2023-02-24T13:15:30;16.69;55.71
64638;HTU21D;51049;45.046;38.950;2023-02-24T13:17:56;16.75;55.54
64638;HTU21D;51049;45.046;38.950;2023-02-24T13:20:36;16.89;55.15
64638;HTU21D;51049;45.046;38.950;2023-02-24T13:23:19;16.96;54.92
64638;HTU21D;51049;45.046;38.950;2023-02-24T13:25:51;17.03;54.97
64638;HTU21D;51049;45.046;38.950;2023-02-24T13:28:28;16.91;55.30
64638;HTU21D;51049;45.046;38.950;2023-02-24T13:31:10;16.66;55.32
64638;HTU21D;51049;45.046;38.950;2023-02-24T13:33:40;16.49;55.35
64638;HTU21D;51049;45.046;38.950;2023-02-24T13:36:14;16.28;55.30
64638;HTU21D;51049;45.046;38.950;2023-02-24T13:38:51;16.11;55.35
64638;HTU21D;51049;45.046;38.950;2023-02-24T13:44:26;16.21;54.48
64638;HTU21D;51049;45.046;38.950;2023-02-24T13:55:25;15.63;54.72
64638;HTU21D;51049;45.046;38.950;2023-02-24T14:01:11;14.77;56.00
64638;HTU21D;51049;45.046;38.950;2023-02-24T14:03:41;14.48;56.55
64638;HTU21D;51049;45.046;38.950;2023-02-24T14:06:34;14.27;56.41
64638;HTU21D;51049;45.046;38.950;2023-02-24T14:09:03;14.09;56.16
64638;HTU21D;51049;45.046;38.950;2023-02-24T14:11:33;13.98;55.82
64638;HTU21D;51049;45.046;38.950;2023-02-24T14:14:00;13.93;55.71
64638;HTU21D;51049;45.046;38.950;2023-02-24T14:16:31;13.81;55.44
64638;HTU21D;51049;45.046;38.950;2023-02-24T14:19:11;13.61;55.77
64638;HTU21D;51049;45.046;38.950;2023-02-24T14:21:37;13.07;56.30
64638;HTU21D;51049;45.046;38.950;2023-02-24T14:24:10;12.21;57.30
64638;HTU21D;51049;45.046;38.950;2023-02-24T14:26:43;11.39;58.43
64638;HTU21D;51049;45.046;38.950;2023-02-24T14:29:09;10.62;59.48
64638;HTU21D;51049;45.046;38.950;2023-02-24T14:31:36;10.00;60.10
64638;HTU21D;51049;45.046;38.950;2023-02-24T14:34:04;9.47;60.42
64638;HTU21D;51049;45.046;38.950;2023-02-24T14:36:40;8.96;60.76
64638;HTU21D;51049;45.046;38.950;2023-02-24T14:41:41;8.06;61.33
64638;HTU21D;51049;45.046;38.950;2023-02-24T14:46:52;7.28;61.83
64638;HTU21D;51049;45.046;38.950;2023-02-24T14:49:25;6.99;61.93
64638;HTU21D;51049;45.046;38.950;2023-02-24T14:52:17;6.68;61.98
64638;HTU21D;51049;45.046;38.950;2023-02-24T14:57:59;6.11;62.16
64638;HTU21D;51049;45.046;38.950;2023-02-24T15:00:32;5.87;62.24
64638;HTU21D;51049;45.046;38.950;2023-02-24T15:05:39;5.43;62.40
64638;HTU21D;51049;45.046;38.950;2023-02-24T15:13:45;4.87;62.64
64638;HTU21D;51049;45.046;38.950;2023-02-24T15:16:19;4.72;62.70
64638;HTU21D;51049;45.046;38.950;2023-02-24T15:18:56;4.56;62.73
64638;HTU21D;51049;45.046;38.950;2023-02-24T15:21:37;4.45;62.77
64638;HTU21D;51049;45.046;38.950;2023-02-24T15:24:19;4.32;62.79
64638;HTU21D;51049;45.046;38.950;2023-02-24T15:26:54;4.19;62.81
64638;HTU21D;51049;45.046;38.950;2023-02-24T15:29:27;4.07;62.87
64638;HTU21D;51049;45.046;38.950;2023-02-24T15:31:58;3.97;62.95
64638;HTU21D;51049;45.046;38.950;2023-02-24T15:34:30;3.88;62.98
64638;HTU21D;51049;45.046;38.950;2023-02-24T15:37:01;3.78;62.96
64638;HTU21D;51049;45.046;38.950;2023-02-24T15:39:31;3.68;63.01
64638;HTU21D;51049;45.046;38.950;2023-02-24T15:42:30;3.57;63.07
64638;HTU21D;51049;45.046;38.950;2023-02-24T15:48:19;3.38;63.18
64638;HTU21D;51049;45.046;38.950;2023-02-24T15:50:47;3.29;63.18
64638;HTU21D;51049;45.046;38.950;2023-02-24T15:53:14;3.23;63.23
64638;HTU21D;51049;45.046;38.950;2023-02-24T15:55:45;3.17;63.28
64638;HTU21D;51049;45.046;38.950;2023-02-24T15:58:21;3.12;63.31
64638;HTU21D;51049;45.046;38.950;2023-02-24T16:00:48;3.05;63.32
64638;HTU21D;51049;45.046;38.950;2023-02-24T16:03:20;2.98;63.34
64638;HTU21D;51049;45.046;38.950;2023-02-24T16:05:46;2.91;63.37
64638;HTU21D;51049;45.046;38.950;2023-02-24T16:08:17;2.85;63.42
64638;HTU21D;51049;45.046;38.950;2023-02-24T16:10:46;2.78;63.46
64638;HTU21D;51049;45.046;38.950;2023-02-24T16:13:32;2.70;63.53
64638;HTU21D;51049;45.046;38.950;2023-02-24T16:16:02;2.64;63.55
64638;HTU21D;51049;45.046;38.950;2023-02-24T16:18:30;2.58;63.58
64638;HTU21D;51049;45.046;38.950;2023-02-24T16:20:57;2.55;63.66
64638;HTU21D;51049;45.046;38.950;2023-02-24T16:23:25;2.52;63.69
64638;HTU21D;51049;45.046;38.950;2023-02-24T16:25:58;2.50;63.72
64638;HTU21D;51049;45.046;38.950;2023-02-24T16:28:29;2.46;63.72
64638;HTU21D;51049;45.046;38.950;2023-02-24T16:30:56;2.43;63.70
64638;HTU21D;51049;45.046;38.950;2023-02-24T16:33:25;2.41;63.74
64638;HTU21D;51049;45.046;38.950;2023-02-24T16:35:52;2.38;63.75
64638;HTU21D;51049;45.046;38.950;2023-02-24T16:38:23;2.32;63.78
64638;HTU21D;51049;45.046;38.950;2023-02-24T16:40:58;2.28;63.83
64638;HTU21D;51049;45.046;38.950;2023-02-24T16:43:27;2.22;63.87
64638;HTU21D;51049;45.046;38.950;2023-02-24T16:46:00;2.17;63.94
64638;HTU21D;51049;45.046;38.950;2023-02-24T16:48:30;2.13;63.97
64638;HTU21D;51049;45.046;38.950;2023-02-24T16:51:00;2.08;63.98
64638;HTU21D;51049;45.046;38.950;2023-02-24T16:53:26;2.05;64.01
64638;HTU21D;51049;45.046;38.950;2023-02-24T16:55:53;2.01;64.06
64638;HTU21D;51049;45.046;38.950;2023-02-24T16:58:19;1.96;64.10
64638;HTU21D;51049;45.046;38.950;2023-02-24T17:00:48;1.91;64.13
64638;HTU21D;51049;45.046;38.950;2023-02-24T17:03:21;1.87;64.18
64638;HTU21D;51049;45.046;38.950;2023-02-24T17:05:51;1.82;64.21
64638;HTU21D;51049;45.046;38.950;2023-02-24T17:08:21;1.77;64.24
64638;HTU21D;51049;45.046;38.950;2023-02-24T17:10:48;1.72;64.26
64638;HTU21D;51049;45.046;38.950;2023-02-24T17:13:21;1.67;64.29
64638;HTU21D;51049;45.046;38.950;2023-02-24T17:15:55;1.60;64.31
64638;HTU21D;51049;45.046;38.950;2023-02-24T17:18:23;1.58;64.36
64638;HTU21D;51049;45.046;38.950;2023-02-24T17:20:49;1.53;64.38
64638;HTU21D;51049;45.046;38.950;2023-02-24T17:23:21;1.52;64.40
64638;HTU21D;51049;45.046;38.950;2023-02-24T17:25:52;1.50;64.43
64638;HTU21D;51049;45.046;38.950;2023-02-24T17:28:19;1.51;64.40
64638;HTU21D;51049;45.046;38.950;2023-02-24T17:30:45;1.48;64.40
64638;HTU21D;51049;45.046;38.950;2023-02-24T17:33:14;1.45;64.41
64638;HTU21D;51049;45.046;38.950;2023-02-24T17:35:41;1.45;64.43
64638;HTU21D;51049;45.046;38.950;2023-02-24T17:38:14;1.43;64.50
64638;HTU21D;51049;45.046;38.950;2023-02-24T17:40:42;1.42;64.47
64638;HTU21D;51049;45.046;38.950;2023-02-24T17:43:10;1.42;64.47
64638;HTU21D;51049;45.046;38.950;2023-02-24T17:46:09;1.42;64.50
64638;HTU21D;51049;45.046;38.950;2023-02-24T17:48:53;1.42;64.50
64638;HTU21D;51049;45.046;38.950;2023-02-24T17:51:19;1.42;64.50
64638;HTU21D;51049;45.046;38.950;2023-02-24T17:53:47;1.42;64.50
64638;HTU21D;51049;45.046;38.950;2023-02-24T17:56:13;1.39;64.50
64638;HTU21D;51049;45.046;38.950;2023-02-24T17:58:40;1.40;64.53
64638;HTU21D;51049;45.046;38.950;2023-02-24T18:01:06;1.39;64.56
64638;HTU21D;51049;45.046;38.950;2023-02-24T18:03:41;1.39;64.57
64638;HTU21D;51049;45.046;38.950;2023-02-24T18:06:11;1.37;64.57
64638;HTU21D;51049;45.046;38.950;2023-02-24T18:08:40;1.35;64.61
64638;HTU21D;51049;45.046;38.950;2023-02-24T18:11:07;1.34;64.66
64638;HTU21D;51049;45.046;38.950;2023-02-24T18:13:35;1.33;64.67
64638;HTU21D;51049;45.046;38.950;2023-02-24T18:16:07;1.34;64.70
64638;HTU21D;51049;45.046;38.950;2023-02-24T18:18:37;1.31;64.66
64638;HTU21D;51049;45.046;38.950;2023-02-24T18:21:07;1.27;64.69
64638;HTU21D;51049;45.046;38.950;2023-02-24T18:23:35;1.25;64.71
64638;HTU21D;51049;45.046;38.950;2023-02-24T18:26:05;1.23;64.76
64638;HTU21D;51049;45.046;38.950;2023-02-24T18:28:32;1.21;64.79
64638;HTU21D;51049;45.046;38.950;2023-02-24T18:31:09;1.19;64.81
64638;HTU21D;51049;45.046;38.950;2023-02-24T18:33:39;1.17;64.80
64638;HTU21D;51049;45.046;38.950;2023-02-24T18:36:05;1.16;64.86
64638;HTU21D;51049;45.046;38.950;2023-02-24T18:38:39;1.14;64.85
64638;HTU21D;51049;45.046;38.950;2023-02-24T18:41:17;1.11;64.86
64638;HTU21D;51049;45.046;38.950;2023-02-24T18:43:47;1.11;64.85
64638;HTU21D;51049;45.046;38.950;2023-02-24T18:46:14;1.10;64.87
64638;HTU21D;51049;45.046;38.950;2023-02-24T18:48:46;1.08;64.89
64638;HTU21D;51049;45.046;38.950;2023-02-24T18:51:14;1.06;64.91
64638;HTU21D;51049;45.046;38.950;2023-02-24T18:53:44;1.04;64.90
64638;HTU21D;51049;45.046;38.950;2023-02-24T18:56:18;1.01;64.94
64638;HTU21D;51049;45.046;38.950;2023-02-24T19:02:09;0.95;65.00
64638;HTU21D;51049;45.046;38.950;2023-02-24T19:04:43;0.94;65.01
64638;HTU21D;51049;45.046;38.950;2023-02-24T19:07:11;0.93;65.04
64638;HTU21D;51049;45.046;38.950;2023-02-24T19:09:40;0.92;65.04
64638;HTU21D;51049;45.046;38.950;2023-02-24T19:12:08;0.90;65.04
64638;HTU21D;51049;45.046;38.950;2023-02-24T19:14:34;0.88;65.08
64638;HTU21D;51049;45.046;38.950;2023-02-24T19:17:06;0.88;65.08
64638;HTU21D;51049;45.046;38.950;2023-02-24T19:19:33;0.84;65.12
64638;HTU21D;51049;45.046;38.950;2023-02-24T19:22:02;0.82;65.14